Aspen Park, Colorado
Current Conditions -  °F | °C
As of 11:53 PM on Tuesday 21 Oct 2014 (Local Time) from KAPA Reporting Station
Overcast Overcast  
Wind Chill: 53°   Ceiling: 10000
Heat Index: 53°   Visibility: 10mi
Dew Point: 41°   Wind: 7mph
Humidity: 64%   Direction: 180°S
Pressure: 29.99"   Gusts: NA
Location:  39.4975°N, 105.289°W
Report Text: KAPA 220553Z 18006KT 10SM BKN100 OVC120 12/05 A2999 RMK AO2 SLP104 T01170050 10189 20117 51007
Loading
Personal Weather Stations






























Interactive Weather Map
Tropical Storm Tracking
New forecast layout! Learn more

10-Day Weather Forecast

Advertisements
Track Severe Weather on mobile